Flight Track Log - Related Links

Times and Time Zones

All times are in EDT time to prevent confusion due to time zone crossing. See the N589H flight status page for this flight to view local times or setup timezone preferences in your user account.


Time Position Orientation Groundspeed Altitude Reporting Facility
EDT Latitude Longitude Course Direction KTS MPH feet Rate Location/Type
Sat 05:01:32 PM 35.1911 -80.8669 94° East 197 227 3,400  Level Atlanta Center
Sat 05:02:27 PM 35.1728 -80.8042 110° East 237 273 4,000 313 Climbing Atlanta Center
Sat 05:03:27 PM 35.1117 -80.7814 163° South 244 281 4,000 197 Level Atlanta Center
Sat 05:04:59 PM 35.0183 -80.7839 181° South 250 288 4,500 1,217 Climbing Jacksonville Center
Sat 05:06:59 PM 34.9167 -80.8267 199° South 206 237 8,300 2,033 Climbing Jacksonville Center
Sat 05:07:59 PM 34.8631 -80.8483 198° South 206 237 10,600 2,200 Climbing Jacksonville Center
Sat 05:08:59 PM 34.8133 -80.8697 199° South 201 231 12,700 1,700 Climbing Jacksonville Center
Sat 05:09:59 PM 34.7531 -80.8964 200° South 207 238 14,000 650 Climbing Jacksonville Center
Sat 05:10:59 PM 34.6847 -80.9208 196° South 236 272 14,000  Level Jacksonville Center
Sat 05:11:59 PM 34.6103 -80.9553 201° Southwest 268 308 14,000 550 Level Jacksonville Center
Sat 05:12:59 PM 34.5375 -80.9844 198° South 280 322 15,100 1,600 Climbing Jacksonville Center
Sat 05:13:59 PM 34.4711 -81.0086 197° South 270 311 17,200 2,200 Climbing Jacksonville Center
Sat 05:14:59 PM 34.4111 -81.0353 200° South 256 295 19,500 2,200 Climbing Jacksonville Center
Sat 05:15:59 PM 34.3550 -81.0564 197° South 235 270 21,600 1,900 Climbing Jacksonville Center
Sat 05:16:59 PM 34.3011 -81.0803 200° South 215 247 23,300 1,750 Climbing Jacksonville Center
Sat 05:17:59 PM 34.2453 -81.1014 197° South 203 234 25,100 1,350 Climbing Jacksonville Center
Sat 05:18:59 PM 34.1892 -81.1203 196° South 203 234 26,000 450 Climbing Jacksonville Center
Sat 05:19:59 PM 34.1206 -81.1342 190° South 225 259 26,000  Level Jacksonville Center
Sat 05:20:59 PM 34.0478 -81.1533 192° South 252 290 26,000  Level Jacksonville Center
Sat 05:21:59 PM 33.9728 -81.1722 192° South 271 312 26,000  Level Jacksonville Center
Sat 05:22:59 PM 33.8917 -81.1914 191° South 289 333 26,000  Level Jacksonville Center
Sat 05:23:59 PM 33.8086 -81.2103 191° South 300 345 26,000  Level Jacksonville Center
Sat 05:24:59 PM 33.7358 -81.2292 192° South 300 345 26,000  Level Jacksonville Center
Sat 05:25:59 PM 33.6544 -81.2458 190° South 300 345 26,000  Level Jacksonville Center
Sat 05:26:59 PM 33.5714 -81.2672 192° South 300 345 26,000  Level Jacksonville Center
Sat 05:27:59 PM 33.4839 -81.2864 190° South 305 351 26,000  Level Jacksonville Center
Sat 05:28:59 PM 33.4008 -81.3053 191° South 311 358 26,000  Level Jacksonville Center
Sat 05:29:59 PM 33.3175 -81.3267 192° South 311 358 26,000  Level Jacksonville Center
Sat 05:30:59 PM 33.2342 -81.3456 191° South 311 358 26,000  Level Jacksonville Center
Sat 05:31:59 PM 33.1489 -81.3667 192° South 311 358 26,000  Level Jacksonville Center
Sat 05:32:59 PM 33.0636 -81.3856 191° South 316 364 26,000  Level Jacksonville Center
Sat 05:33:59 PM 32.9783 -81.4044 191° South 316 364 26,000  Level Jacksonville Center
Sat 05:34:59 PM 32.8950 -81.4256 192° South 316 364 26,000  Level Jacksonville Center
Sat 05:35:59 PM 32.8097 -81.4467 192° South 316 364 26,000  Level Jacksonville Center
Sat 05:36:59 PM 32.7222 -81.4653 190° South 316 364 26,000  Level Jacksonville Center
Sat 05:37:59 PM 32.6283 -81.4867 191° South 316 364 26,000  Level Jacksonville Center
Sat 05:38:59 PM 32.5453 -81.5075 192° South 316 364 26,000  Level Jacksonville Center
Sat 05:39:59 PM 32.4661 -81.5236 190° South 316 364 26,000  Level Jacksonville Center
Sat 05:40:59 PM 32.3722 -81.5472 192° South 316 364 26,000  Level Jacksonville Center
Sat 05:41:59 PM 32.2975 -81.5653 192° South 316 364 26,000  Level Jacksonville Center
Sat 05:42:59 PM 32.2036 -81.5864 191° South 317 365 26,000  Level Jacksonville Center
Sat 05:43:59 PM 32.1161 -81.6072 191° South 317 365 26,000  Level Jacksonville Center
Sat 05:44:59 PM 32.0392 -81.6231 190° South 317 365 26,000  Level Jacksonville Center
Sat 05:45:59 PM 31.9433 -81.6464 192° South 317 365 26,000  Level Jacksonville Center
Sat 05:46:59 PM 31.8661 -81.6622 190° South 322 371 26,000  Level Jacksonville Center
Sat 05:47:59 PM 31.7703 -81.6831 190° South 322 371 26,000  Level Jacksonville Center
Sat 05:48:59 PM 31.6808 -81.7036 191° South 322 371 26,000  Level Jacksonville Center
Sat 05:49:59 PM 31.6017 -81.7242 192° South 327 376 26,000  Level Jacksonville Center
Sat 05:50:59 PM 31.5036 -81.7450 190° South 332 382 26,000  Level Jacksonville Center
Sat 05:51:59 PM 31.4161 -81.7656 191° South 332 382 26,000  Level Jacksonville Center
Sat 05:52:59 PM 31.3244 -81.7861 191° South 332 382 26,000  Level Jacksonville Center
Sat 05:53:59 PM 31.2350 -81.8064 191° South 325 374 26,000  Level Jacksonville Center
Sat 05:54:59 PM 31.1472 -81.8244 190° South 325 374 26,000  Level Jacksonville Center
Sat 05:55:59 PM 31.0597 -81.8450 191° South 320 368 26,000  Level Jacksonville Center
Sat 05:56:59 PM 30.9722 -81.8653 191° South 320 368 26,000  Level Jacksonville Center
Sat 05:57:59 PM 30.8847 -81.8831 190° South 320 368 26,000  Level Jacksonville Center
Sat 05:58:59 PM 30.7992 -81.9033 192° South 320 368 26,000  Level Jacksonville Center
Sat 05:59:59 PM 30.7139 -81.9211 190° South 320 368 26,000  Level Jacksonville Center
Sat 06:00:59 PM 30.6242 -81.9414 191° South 320 368 26,000  Level Jacksonville Center
Sat 06:01:59 PM 30.5386 -81.9544 187° South 314 361 26,000  Level Jacksonville Center
Sat 06:02:59 PM 30.4511 -81.9769 192° South 314 361 26,000 -250 Level Jacksonville Center
Sat 06:03:59 PM 30.3656 -81.9944 190° South 314 361 25,500 -800 Descending Jacksonville Center
Sat 06:04:59 PM 30.2761 -82.0147 191° South 334 384 24,400 -750 Descending Jacksonville Center
Sat 06:05:59 PM 30.1842 -82.0347 191° South 339 390 24,000 -200 Descending Jacksonville Center
Sat 06:06:59 PM 30.0947 -82.0522 190° South 333 383 24,000  Level Jacksonville Center
Sat 06:07:59 PM 30.0156 -82.0769 195° South 328 377 24,000  Level Jacksonville Center
Sat 06:08:59 PM 29.9278 -82.0922 189° South 328 377 24,000  Level Jacksonville Center
Sat 06:09:59 PM 29.8383 -82.1144 192° South 328 377 24,000  Level Jacksonville Center
Sat 06:10:59 PM 29.7506 -82.1342 191° South 328 377 24,000  Level Jacksonville Center
Sat 06:11:59 PM 29.6611 -82.1492 188° South 333 383 24,000  Level Jacksonville Center
Sat 06:12:59 PM 29.5733 -82.1692 191° South 333 383 24,000  Level Jacksonville Center
Sat 06:13:59 PM 29.4858 -82.1889 191° South 333 383 24,000 -250 Level Jacksonville Center
Sat 06:14:59 PM 29.3983 -82.2086 191° South 333 383 23,500 -1,200 Descending Jacksonville Center
Sat 06:15:59 PM 29.3067 -82.2281 190° South 333 383 21,600 -1,900 Descending Jacksonville Center
Sat 06:16:59 PM 29.2169 -82.2478 191° South 333 383 19,700 -1,900 Descending Jacksonville Center
Sat 06:17:59 PM 29.1292 -82.2650 190° South 333 383 17,800 -1,800 Descending Jacksonville Center
Sat 06:18:59 PM 29.0353 -82.2633 179° South 333 383 16,100 -1,800 Descending Jacksonville Center
Sat 06:19:59 PM 28.9353 -82.2639 180° South 328 377 14,200 -2,550 Descending Jacksonville Center
Sat 06:20:59 PM 28.8475 -82.2597 178° South 328 377 11,000 -1,043 Descending Jacksonville Center
Sat 06:23:03 PM 28.6833 -82.2500 177° South 282 325 11,000 -228 Level Tampa TRACON
Sat 06:24:03 PM 28.6000 -82.2833 199° South 264 304 10,300 -1,000 Descending Tampa TRACON
Sat 06:25:09 PM 28.5333 -82.3333 213° Southwest 247 284 8,900 -1,600 Descending Tampa TRACON
Sat 06:26:03 PM 28.5000 -82.3833 233° Southwest 240 276 7,100 -1,944 Descending Tampa TRACON
Sat 06:26:57 PM 28.4500 -82.4333 221° Southwest 252 290 5,400 -1,368 Descending Tampa TRACON
Sat 06:27:57 PM 28.4000 -82.4833 221° Southwest 239 275 4,500 -700 Descending Tampa TRACON
Sat 06:28:57 PM 28.3667 -82.5500 240° Southwest 235 270 4,000 -238 Descending Tampa TRACON
Sat 06:30:03 PM 28.3167 -82.6000 221° Southwest 210 242 4,000  Level Tampa TRACON
Sat 06:31:04 PM 28.2833 -82.6500 233° Southwest 198 228 4,000 -50 Level Tampa TRACON
Sat 06:32:04 PM 28.2333 -82.6833 210° Southwest 202 232 3,900 -619 Descending Tampa TRACON
Sat 06:33:10 PM 28.1833 -82.7167 210° Southwest 209 241 2,700 -650 Descending Tampa TRACON
Sat 06:34:04 PM 28.1333 -82.7333 196° South 183 211 2,600 -105 Descending Tampa TRACON
Sat 06:35:04 PM 28.0833 -82.7167 164° South 202 232 2,500 -429 Descending Tampa TRACON
Sat 06:36:10 PM 28.0167 -82.7000 168° South 186 214 1,700 -600 Descending Tampa TRACON
Sat 06:37:04 PM 27.9833 -82.7000 180° South 120 138 1,300 -500 Descending Tampa TRACON
Sat 06:38:10 PM 27.9500 -82.7000 180° South 105 121 700 -545 Descending Tampa TRACON
Sat 06:40:00 PM 27.9100 -82.6875 North  Level Estimated

Login

Don't have an account? Register now (free) for customized features, flight alerts, and more!